Time;durP1;ratioP1;P1;durP2;ratioP2;P2;SDS_P1;SDS_P2;PMS_P1;PMS_P2;Temp;Humidity;BMP_temperature;BMP_pressure;BME280_temperature;BME280_humidity;BME280_pressure;Samples;Min_cycle;Max_cycle;Signal;HPM_P1;HPM_P2
2023/08/30 00:01:44;;;;;;;8.37;7.57;;;;;;;;;;5073597;28;20638;-71
2023/08/30 00:04:49;;;;;;;7.93;7.23;;;;;;;;;;5061174;28;20195;-71
2023/08/30 00:07:53;;;;;;;8.80;7.50;;;;;;;;;;5073301;28;20187;-72
2023/08/30 00:10:58;;;;;;;9.37;7.83;;;;;;;;;;5073538;28;20431;-72
2023/08/30 00:14:05;;;;;;;12.17;8.00;;;;;;;;;;5060851;28;20195;-71
2023/08/30 00:17:09;;;;;;;9.23;8.33;;;;;;;;;;5073190;28;20182;-72
2023/08/30 00:20:13;;;;;;;9.30;8.40;;;;;;;;;;5073106;28;20175;-72
2023/08/30 00:23:17;;;;;;;9.10;7.83;;;;;;;;;;5073331;28;20698;-72
2023/08/30 00:26:21;;;;;;;11.93;8.60;;;;;;;;;;5060716;28;20199;-72
2023/08/30 00:29:26;;;;;;;9.07;8.17;;;;;;;;;;5061043;28;20195;-72
2023/08/30 00:32:30;;;;;;;9.97;8.83;;;;;;;;;;5072861;28;20219;-72
2023/08/30 00:35:34;;;;;;;8.90;8.10;;;;;;;;;;5060634;28;20175;-74
2023/08/30 00:38:38;;;;;;;9.77;8.77;;;;;;;;;;5060593;28;20184;-72
2023/08/30 00:41:43;;;;;;;10.07;8.47;;;;;;;;;;5060519;28;20175;-72
2023/08/30 00:44:48;;;;;;;9.10;8.20;;;;;;;;;;5072742;28;20198;-72
2023/08/30 00:47:53;;;;;;;9.10;8.20;;;;;;;;;;5060740;28;20196;-72
2023/08/30 00:50:57;;;;;;;10.30;9.17;;;;;;;;;;5060529;28;20175;-73
2023/08/30 00:54:02;;;;;;;11.33;9.00;;;;;;;;;;5060716;28;20635;-72
2023/08/30 00:57:07;;;;;;;8.63;7.73;;;;;;;;;;5060071;28;20661;-73
2023/08/30 01:00:11;;;;;;;8.70;7.90;;;;;;;;;;5072334;28;20183;-72
2023/08/30 01:03:16;;;;;;;11.10;9.00;;;;;;;;;;5063595;28;20215;-72
2023/08/30 01:06:20;;;;;;;9.80;8.90;;;;;;;;;;5063769;28;20223;-73
2023/08/30 01:09:25;;;;;;;9.57;8.67;;;;;;;;;;5063785;28;20180;-73
2023/08/30 01:12:37;;;;;;;9.77;8.87;;;;;;;;;;5063589;28;20222;-72
2023/08/30 01:15:42;;;;;;;9.60;8.60;;;;;;;;;;5076283;28;20172;-73
2023/08/30 01:18:48;;;;;;;9.93;8.93;;;;;;;;;;5064130;28;20552;-72
2023/08/30 01:22:04;;;;;;;9.00;8.03;;;;;;;;;;5063918;28;20694;-73
2023/08/30 01:25:29;;;;;;;10.53;9.43;;;;;;;;;;5063921;28;20211;-73
2023/08/30 01:28:35;;;;;;;9.70;8.83;;;;;;;;;;5052719;28;20657;-72
2023/08/30 01:31:40;;;;;;;9.70;8.80;;;;;;;;;;5063834;28;20184;-72
2023/08/30 01:34:46;;;;;;;9.73;8.63;;;;;;;;;;5064000;28;20172;-73
2023/08/30 01:37:52;;;;;;;9.50;8.60;;;;;;;;;;5076061;28;20176;-73
2023/08/30 01:40:59;;;;;;;9.33;8.43;;;;;;;;;;5076321;28;20523;-72
2023/08/30 01:44:05;;;;;;;9.13;8.23;;;;;;;;;;5063749;28;20180;-72
2023/08/30 01:47:11;;;;;;;9.27;8.37;;;;;;;;;;5063499;28;20207;-73
2023/08/30 01:50:16;;;;;;;10.53;9.43;;;;;;;;;;5063388;28;20199;-73
2023/08/30 01:53:21;;;;;;;10.20;8.90;;;;;;;;;;5063317;28;20218;-73
2023/08/30 01:56:25;;;;;;;10.20;9.23;;;;;;;;;;5063498;28;20183;-73
2023/08/30 01:59:30;;;;;;;10.83;8.93;;;;;;;;;;5063290;28;20216;-73
2023/08/30 02:02:34;;;;;;;10.50;9.07;;;;;;;;;;5051943;28;20228;-73
2023/08/30 02:05:53;;;;;;;9.13;8.33;;;;;;;;;;5051962;28;20199;-73
2023/08/30 02:09:04;;;;;;;9.73;8.70;;;;;;;;;;5051951;28;20180;-73
2023/08/30 02:12:14;;;;;;;10.80;9.73;;;;;;;;;;5063062;28;20215;-73
2023/08/30 02:15:19;;;;;;;9.73;8.83;;;;;;;;;;5075541;28;20187;-73
2023/08/30 02:18:25;;;;;;;9.60;8.60;;;;;;;;;;5075552;28;20180;-73
2023/08/30 02:21:31;;;;;;;10.57;9.57;;;;;;;;;;5063095;28;20179;-73
2023/08/30 02:24:36;;;;;;;11.40;9.17;;;;;;;;;;5062860;28;20253;-73
2023/08/30 02:27:40;;;;;;;11.73;10.10;;;;;;;;;;5051354;28;20191;-73
2023/08/30 02:30:46;;;;;;;10.80;9.70;;;;;;;;;;5062988;28;20562;-73
2023/08/30 02:33:50;;;;;;;12.60;10.13;;;;;;;;;;5062797;28;20227;-72
2023/08/30 02:36:54;;;;;;;10.40;9.40;;;;;;;;;;5062756;28;20179;-73
2023/08/30 02:39:59;;;;;;;10.87;9.57;;;;;;;;;;5075035;28;20179;-73
2023/08/30 02:43:03;;;;;;;11.30;10.20;;;;;;;;;;5051145;28;20732;-73
2023/08/30 02:46:07;;;;;;;12.00;10.57;;;;;;;;;;5062685;28;20198;-73
2023/08/30 02:49:11;;;;;;;13.50;11.20;;;;;;;;;;5062457;28;20187;-73
2023/08/30 02:52:17;;;;;;;11.97;10.77;;;;;;;;;;5062307;28;20218;-73
2023/08/30 02:55:21;;;;;;;14.43;12.80;;;;;;;;;;5074515;28;20202;-73
2023/08/30 02:58:25;;;;;;;12.23;11.03;;;;;;;;;;5050706;28;20218;-73
2023/08/30 03:01:35;;;;;;;14.03;12.53;;;;;;;;;;5062369;28;20194;-73
2023/08/30 03:04:39;;;;;;;16.80;12.77;;;;;;;;;;5062088;28;20198;-73
2023/08/30 03:07:43;;;;;;;14.20;12.70;;;;;;;;;;5062117;28;20199;-73
2023/08/30 03:10:47;;;;;;;14.50;13.03;;;;;;;;;;5061996;28;20202;-73
2023/08/30 03:13:53;;;;;;;14.20;12.73;;;;;;;;;;5061887;28;20599;-73
2023/08/30 03:16:58;;;;;;;14.40;12.90;;;;;;;;;;5061931;28;20183;-73
2023/08/30 03:20:04;;;;;;;14.67;13.17;;;;;;;;;;5061834;28;20198;-72
2023/08/30 03:23:08;;;;;;;15.93;13.10;;;;;;;;;;5050486;28;20578;-73
2023/08/30 03:26:14;;;;;;;15.47;13.67;;;;;;;;;;5049869;28;20581;-73
2023/08/30 03:29:18;;;;;;;16.63;14.93;;;;;;;;;;5061616;28;20190;-73
2023/08/30 03:32:22;;;;;;;17.50;14.17;;;;;;;;;;5072361;28;20226;-73
2023/08/30 03:35:27;;;;;;;21.67;15.37;;;;;;;;;;5071165;28;20258;-73
2023/08/30 03:38:31;;;;;;;17.27;15.03;;;;;;;;;;5058420;28;20265;-73
2023/08/30 03:41:35;;;;;;;18.03;14.37;;;;;;;;;;5058156;28;20198;-73
2023/08/30 03:44:40;;;;;;;16.33;14.63;;;;;;;;;;5046886;28;20182;-72
2023/08/30 03:47:45;;;;;;;17.17;14.97;;;;;;;;;;5058578;28;20234;-73
2023/08/30 03:50:49;;;;;;;17.17;14.73;;;;;;;;;;5058145;28;20218;-73
2023/08/30 03:53:56;;;;;;;17.57;15.67;;;;;;;;;;5058235;28;20234;-73
2023/08/30 03:57:00;;;;;;;15.87;14.23;;;;;;;;;;5046925;28;20202;-73
2023/08/30 04:00:04;;;;;;;17.37;15.47;;;;;;;;;;5057967;28;20661;-73
2023/08/30 04:03:18;;;;;;;18.17;16.07;;;;;;;;;;5070239;28;20222;-73
2023/08/30 04:06:23;;;;;;;16.93;14.43;;;;;;;;;;5057653;28;20692;-73
2023/08/30 04:09:27;;;;;;;13.40;11.97;;;;;;;;;;5057769;28;20206;-73
2023/08/30 04:12:31;;;;;;;13.17;11.87;;;;;;;;;;5057731;28;20218;-73
2023/08/30 04:15:36;;;;;;;16.77;12.03;;;;;;;;;;5057879;28;20190;-73
2023/08/30 04:18:41;;;;;;;11.10;9.77;;;;;;;;;;5070480;28;20187;-73
2023/08/30 04:21:45;;;;;;;12.53;11.23;;;;;;;;;;5046074;28;20187;-73
2023/08/30 04:24:49;;;;;;;14.47;11.37;;;;;;;;;;5057637;28;20209;-73
2023/08/30 04:27:53;;;;;;;13.87;12.57;;;;;;;;;;5057482;28;20684;-73
2023/08/30 04:30:58;;;;;;;14.57;13.17;;;;;;;;;;5057567;28;20624;-73
2023/08/30 04:34:02;;;;;;;13.57;12.27;;;;;;;;;;5057540;28;20183;-73
2023/08/30 04:37:06;;;;;;;13.90;12.47;;;;;;;;;;5068909;28;20537;-72
2023/08/30 04:40:11;;;;;;;15.83;14.23;;;;;;;;;;5058360;28;20178;-73
2023/08/30 04:43:15;;;;;;;17.50;13.90;;;;;;;;;;5060459;28;20218;-73
2023/08/30 04:46:19;;;;;;;16.60;14.23;;;;;;;;;;5060475;28;20202;-73
2023/08/30 04:49:25;;;;;;;16.00;14.37;;;;;;;;;;5049178;28;20543;-73
2023/08/30 04:52:29;;;;;;;19.60;15.47;;;;;;;;;;5049094;28;20218;-73
2023/08/30 04:55:35;;;;;;;15.87;14.10;;;;;;;;;;5060772;28;20557;-73
2023/08/30 04:58:39;;;;;;;16.40;14.37;;;;;;;;;;5072632;28;20210;-73
2023/08/30 05:01:46;;;;;;;15.40;13.80;;;;;;;;;;5060301;28;20183;-73
2023/08/30 05:04:51;;;;;;;16.70;15.00;;;;;;;;;;5060700;28;20206;-73
2023/08/30 05:07:55;;;;;;;19.53;15.47;;;;;;;;;;5060603;28;20218;-72
2023/08/30 05:11:00;;;;;;;16.47;14.70;;;;;;;;;;5049031;28;20198;-73
2023/08/30 05:14:04;;;;;;;16.87;15.17;;;;;;;;;;5049065;28;20178;-73
2023/08/30 05:17:08;;;;;;;20.03;16.10;;;;;;;;;;5060221;28;20203;-72
2023/08/30 05:20:13;;;;;;;17.67;15.80;;;;;;;;;;5049045;28;20187;-73
2023/08/30 05:23:17;;;;;;;19.63;16.53;;;;;;;;;;5060290;28;20704;-73
2023/08/30 05:26:20;;;;;;;18.43;16.00;;;;;;;;;;5072416;28;20210;-73
2023/08/30 05:29:25;;;;;;;19.43;17.33;;;;;;;;;;5072405;28;20190;-73
2023/08/30 05:32:29;;;;;;;18.87;16.87;;;;;;;;;;5060528;28;20226;-73
2023/08/30 05:35:44;;;;;;;19.03;17.03;;;;;;;;;;5062047;28;20187;-73
2023/08/30 05:39:24;;;;;;;20.43;17.47;;;;;;;;;;5072366;28;20203;-73
2023/08/30 05:42:33;;;;;;;20.50;17.80;;;;;;;;;;5048425;28;20712;-73
2023/08/30 05:45:38;;;;;;;19.77;17.47;;;;;;;;;;5048910;28;20202;-73
2023/08/30 05:48:42;;;;;;;18.30;16.50;;;;;;;;;;5062370;28;20254;-73
2023/08/30 05:51:47;;;;;;;20.07;17.93;;;;;;;;;;5052163;28;20186;-73
2023/08/30 05:54:51;;;;;;;20.00;17.60;;;;;;;;;;5063454;28;20190;-73
2023/08/30 05:57:56;;;;;;;20.63;16.60;;;;;;;;;;5052033;28;20206;-72
2023/08/30 06:01:00;;;;;;;19.40;16.70;;;;;;;;;;5063343;28;20199;-73
2023/08/30 06:04:04;;;;;;;32.10;25.73;;;;;;;;;;5063330;28;20202;-72
2023/08/30 06:07:08;;;;;;;22.50;18.97;;;;;;;;;;5075807;28;20202;-73
2023/08/30 06:10:12;;;;;;;26.80;23.43;;;;;;;;;;5063187;28;20186;-73
2023/08/30 06:13:16;;;;;;;19.60;17.57;;;;;;;;;;5063017;28;20218;-73
2023/08/30 06:16:21;;;;;;;23.07;20.67;;;;;;;;;;5075726;28;20191;-73
2023/08/30 06:19:25;;;;;;;19.83;17.77;;;;;;;;;;5062879;28;20190;-72
2023/08/30 06:22:29;;;;;;;21.40;19.17;;;;;;;;;;5075137;28;20226;-73
2023/08/30 06:25:33;;;;;;;20.03;18.00;;;;;;;;;;5075418;28;20186;-73
2023/08/30 06:28:38;;;;;;;22.03;17.50;;;;;;;;;;5075462;28;20210;-73
2023/08/30 06:31:42;;;;;;;26.30;23.47;;;;;;;;;;5062681;28;20210;-73
2023/08/30 06:34:46;;;;;;;21.17;18.87;;;;;;;;;;5062900;28;20198;-73
2023/08/30 06:37:50;;;;;;;21.00;18.73;;;;;;;;;;5062669;28;20550;-73
2023/08/30 06:40:57;;;;;;;18.53;16.57;;;;;;;;;;5075175;28;20186;-73
2023/08/30 06:44:02;;;;;;;19.03;17.03;;;;;;;;;;5075111;28;20186;-73
2023/08/30 06:47:06;;;;;;;18.63;16.43;;;;;;;;;;5074747;28;20214;-73
2023/08/30 06:50:10;;;;;;;18.43;16.63;;;;;;;;;;5074802;28;20182;-73
2023/08/30 06:53:14;;;;;;;17.77;15.90;;;;;;;;;;5074953;28;20218;-73
2023/08/30 06:56:19;;;;;;;17.97;16.17;;;;;;;;;;5074877;28;20657;-73
2023/08/30 06:59:23;;;;;;;21.03;18.83;;;;;;;;;;5061481;28;20206;-73
2023/08/30 07:02:28;;;;;;;25.77;23.07;;;;;;;;;;5074755;28;20570;-73
2023/08/30 07:05:32;;;;;;;57.97;48.67;;;;;;;;;;5074646;28;20195;-73
2023/08/30 07:08:37;;;;;;;19.17;17.07;;;;;;;;;;5074561;28;20206;-73
2023/08/30 07:11:44;;;;;;;18.33;16.33;;;;;;;;;;5074494;28;20190;-73
2023/08/30 07:14:48;;;;;;;17.13;15.33;;;;;;;;;;5074535;28;20269;-73
2023/08/30 07:17:52;;;;;;;15.43;13.87;;;;;;;;;;5074565;28;20185;-73
2023/08/30 07:20:57;;;;;;;16.33;14.60;;;;;;;;;;5061875;28;20191;-73
2023/08/30 07:24:01;;;;;;;14.17;12.70;;;;;;;;;;5074080;28;20179;-73
2023/08/30 07:27:05;;;;;;;14.13;12.63;;;;;;;;;;5073954;28;20210;-73
2023/08/30 07:30:10;;;;;;;15.10;13.50;;;;;;;;;;5073919;28;20195;-73
2023/08/30 07:33:14;;;;;;;13.80;12.50;;;;;;;;;;5074110;28;20218;-73
2023/08/30 07:36:18;;;;;;;15.80;12.80;;;;;;;;;;5073760;28;20199;-73
2023/08/30 07:39:22;;;;;;;12.87;11.57;;;;;;;;;;5073742;28;20214;-73
2023/08/30 07:42:27;;;;;;;15.00;12.23;;;;;;;;;;5073681;28;20218;-73
2023/08/30 07:45:31;;;;;;;14.87;13.20;;;;;;;;;;5061335;28;20562;-74
2023/08/30 07:48:35;;;;;;;14.17;12.83;;;;;;;;;;5061459;28;20226;-73
2023/08/30 07:51:39;;;;;;;14.60;12.87;;;;;;;;;;5073427;28;20202;-73
2023/08/30 07:54:43;;;;;;;13.13;11.83;;;;;;;;;;5061169;28;20206;-73
2023/08/30 07:57:47;;;;;;;15.70;12.27;;;;;;;;;;5061079;28;20206;-74
2023/08/30 08:00:52;;;;;;;11.87;10.77;;;;;;;;;;5061105;28;20210;-73
2023/08/30 08:03:56;;;;;;;11.87;10.77;;;;;;;;;;5073270;28;20238;-73
2023/08/30 08:07:02;;;;;;;10.83;9.83;;;;;;;;;;5073528;28;20202;-73
2023/08/30 08:10:07;;;;;;;10.93;9.63;;;;;;;;;;5073309;28;20202;-73
2023/08/30 08:13:12;;;;;;;11.00;9.90;;;;;;;;;;5060586;28;20224;-73
2023/08/30 08:16:16;;;;;;;11.10;10.00;;;;;;;;;;5073118;28;20184;-73
2023/08/30 08:19:21;;;;;;;13.10;11.60;;;;;;;;;;5061214;28;20187;-73
2023/08/30 08:22:25;;;;;;;12.13;9.83;;;;;;;;;;5073061;28;20217;-74
2023/08/30 08:25:30;;;;;;;11.33;10.27;;;;;;;;;;5073321;28;20186;-74
2023/08/30 08:28:34;;;;;;;10.67;9.57;;;;;;;;;;5060986;28;20688;-73
2023/08/30 08:31:39;;;;;;;10.90;9.83;;;;;;;;;;5060738;28;20188;-74
2023/08/30 08:34:43;;;;;;;10.00;8.97;;;;;;;;;;5060661;28;20183;-73
2023/08/30 08:37:48;;;;;;;10.57;9.63;;;;;;;;;;5073287;28;20238;-73
2023/08/30 08:41:04;;;;;;;11.10;10.10;;;;;;;;;;5073180;28;20191;-74
2023/08/30 08:44:10;;;;;;;10.23;9.27;;;;;;;;;;5072981;28;20183;-73
2023/08/30 08:47:16;;;;;;;9.20;8.30;;;;;;;;;;5060586;28;20188;-73
2023/08/30 08:50:20;;;;;;;9.07;8.27;;;;;;;;;;5072879;28;20175;-74
2023/08/30 08:53:24;;;;;;;9.20;8.30;;;;;;;;;;5072868;28;20222;-74
2023/08/30 08:56:30;;;;;;;8.60;7.80;;;;;;;;;;5060519;28;20183;-72
2023/08/30 08:59:35;;;;;;;9.50;8.53;;;;;;;;;;5072791;28;20168;-73
2023/08/30 09:02:40;;;;;;;8.97;8.10;;;;;;;;;;5060244;28;20207;-74
2023/08/30 09:05:46;;;;;;;9.33;8.40;;;;;;;;;;5072768;28;20187;-73
2023/08/30 09:08:50;;;;;;;7.83;6.33;;;;;;;;;;5060276;28;20199;-74
2023/08/30 09:11:54;;;;;;;7.47;6.70;;;;;;;;;;5060357;28;20567;-72
2023/08/30 09:14:58;;;;;;;7.73;7.03;;;;;;;;;;5072589;28;20176;-72
2023/08/30 09:18:03;;;;;;;10.10;9.20;;;;;;;;;;5072883;28;20180;-74
2023/08/30 09:21:09;;;;;;;8.40;6.50;;;;;;;;;;5060260;28;20191;-72
2023/08/30 09:24:13;;;;;;;8.23;7.37;;;;;;;;;;5076007;28;20180;-73
2023/08/30 09:27:18;;;;;;;10.37;7.37;;;;;;;;;;5064090;28;20529;-73
2023/08/30 09:30:22;;;;;;;7.87;7.07;;;;;;;;;;5064164;28;20191;-73
2023/08/30 09:33:34;;;;;;;7.97;7.10;;;;;;;;;;5076339;28;20686;-73
2023/08/30 09:36:40;;;;;;;7.23;6.53;;;;;;;;;;5076217;28;20179;-72
2023/08/30 09:39:51;;;;;;;5.90;5.30;;;;;;;;;;5075984;28;20200;-73
2023/08/30 09:42:58;;;;;;;9.03;6.90;;;;;;;;;;5076174;28;20223;-72
2023/08/30 09:46:05;;;;;;;8.03;6.33;;;;;;;;;;5076297;28;20180;-72
2023/08/30 09:49:10;;;;;;;6.47;5.87;;;;;;;;;;5075943;28;20551;-73
2023/08/30 09:52:15;;;;;;;7.10;6.40;;;;;;;;;;5075716;28;20219;-72
2023/08/30 09:55:22;;;;;;;9.23;8.37;;;;;;;;;;5063712;28;20175;-73
2023/08/30 09:58:27;;;;;;;6.93;6.30;;;;;;;;;;5063460;28;20195;-73
2023/08/30 10:01:32;;;;;;;6.40;5.80;;;;;;;;;;5075979;28;20639;-72
2023/08/30 10:04:40;;;;;;;6.80;5.70;;;;;;;;;;5075591;28;20180;-73
2023/08/30 10:07:44;;;;;;;6.60;6.00;;;;;;;;;;5075755;28;20211;-73
2023/08/30 10:10:50;;;;;;;8.10;7.30;;;;;;;;;;5132413;22;20239;-87
2023/08/30 10:13:55;;;;;;;6.80;5.93;;;;;;;;;;5075810;28;20175;-86
2023/08/30 10:17:03;;;;;;;9.70;5.00;;;;;;;;;;5076668;28;20518;-86
2023/08/30 10:20:08;;;;;;;5.00;4.37;;;;;;;;;;5064527;28;20207;-86
2023/08/30 10:23:14;;;;;;;5.73;3.93;;;;;;;;;;5065155;28;20199;-85
2023/08/30 10:26:19;;;;;;;4.17;3.73;;;;;;;;;;5064284;28;20175;-84
2023/08/30 10:29:24;;;;;;;4.60;4.07;;;;;;;;;;5086173;28;20231;-83
2023/08/30 10:32:28;;;;;;;4.00;3.70;;;;;;;;;;5098565;28;20183;-84
2023/08/30 10:35:32;;;;;;;4.77;3.10;;;;;;;;;;5073438;28;20177;-83
2023/08/30 10:38:39;;;;;;;2.40;2.20;;;;;;;;;;5086165;28;20175;-84
2023/08/30 10:41:58;;;;;;;4.43;2.63;;;;;;;;;;5063069;28;20180;-82
2023/08/30 10:45:07;;;;;;;2.70;2.50;;;;;;;;;;5074267;28;20180;-83
2023/08/30 10:48:11;;;;;;;2.63;2.40;;;;;;;;;;5074191;28;20207;-83
2023/08/30 10:51:39;;;;;;;2.50;2.27;;;;;;;;;;5074332;28;20222;-83
2023/08/30 10:54:43;;;;;;;3.40;2.20;;;;;;;;;;5086042;28;20618;-83
2023/08/30 10:57:59;;;;;;;3.43;2.03;;;;;;;;;;5085613;28;20175;-83
2023/08/30 11:01:04;;;;;;;3.13;2.83;;;;;;;;;;5074244;28;20219;-83
2023/08/30 11:04:09;;;;;;;4.30;2.30;;;;;;;;;;5085600;28;20627;-83
2023/08/30 11:07:14;;;;;;;4.63;2.10;;;;;;;;;;5074029;28;20521;-83
2023/08/30 11:10:19;;;;;;;3.23;1.70;;;;;;;;;;5073956;28;20589;-83
2023/08/30 11:13:23;;;;;;;3.23;1.60;;;;;;;;;;5072808;28;20200;-83
2023/08/30 11:16:27;;;;;;;2.80;1.80;;;;;;;;;;5084989;28;20187;-83
2023/08/30 11:19:32;;;;;;;3.40;2.20;;;;;;;;;;5085078;28;20213;-83
2023/08/30 11:22:37;;;;;;;4.00;2.10;;;;;;;;;;5073530;28;20177;-83
2023/08/30 11:25:41;;;;;;;3.60;2.90;;;;;;;;;;5097699;28;20180;-83
2023/08/30 11:28:48;;;;;;;4.50;3.47;;;;;;;;;;5085312;28;20206;-82
2023/08/30 11:31:52;;;;;;;4.83;2.50;;;;;;;;;;5073999;28;20181;-82
2023/08/30 11:34:59;;;;;;;11.70;6.93;;;;;;;;;;5073607;28;20533;-83
2023/08/30 11:38:03;;;;;;;6.80;4.73;;;;;;;;;;5073952;28;20189;-83
2023/08/30 11:41:08;;;;;;;4.60;3.10;;;;;;;;;;5084753;28;20219;-82
2023/08/30 11:44:13;;;;;;;17.77;12.57;;;;;;;;;;5085093;28;20202;-82
2023/08/30 11:47:20;;;;;;;4.93;4.13;;;;;;;;;;5084892;28;20191;-82
2023/08/30 11:50:24;;;;;;;13.17;9.40;;;;;;;;;;5062023;28;20212;-83
2023/08/30 11:53:28;;;;;;;2.63;2.43;;;;;;;;;;5086169;28;20190;-83
2023/08/30 11:56:34;;;;;;;5.17;3.00;;;;;;;;;;5097971;28;20173;-83
2023/08/30 11:59:39;;;;;;;2.83;2.57;;;;;;;;;;5062394;28;20219;-83
2023/08/30 12:02:44;;;;;;;2.87;2.40;;;;;;;;;;5074900;28;20179;-83
2023/08/30 12:05:49;;;;;;;3.20;2.30;;;;;;;;;;5085631;28;20182;-83
2023/08/30 12:08:58;;;;;;;2.77;2.40;;;;;;;;;;5062691;28;20207;-83
2023/08/30 12:12:12;;;;;;;3.53;2.83;;;;;;;;;;5072800;28;20178;-82
2023/08/30 12:15:16;;;;;;;3.43;3.13;;;;;;;;;;5084528;28;20175;-81
2023/08/30 12:18:27;;;;;;;3.00;2.63;;;;;;;;;;5073121;28;20184;-85
2023/08/30 12:21:39;;;;;;;5.20;3.67;;;;;;;;;;5054544;28;20195;-82
2023/08/30 12:24:44;;;;;;;3.10;2.80;;;;;;;;;;5065846;28;20544;-82
2023/08/30 12:27:48;;;;;;;5.87;2.47;;;;;;;;;;5063451;28;20190;-82
2023/08/30 12:30:53;;;;;;;9.27;8.07;;;;;;;;;;5063330;28;20211;-84
2023/08/30 12:33:57;;;;;;;15.03;12.23;;;;;;;;;;5075686;28;20178;-83
2023/08/30 12:37:03;;;;;;;8.57;6.70;;;;;;;;;;5052180;28;20188;-82
2023/08/30 12:40:07;;;;;;;8.10;5.38;;;;;;;;;;5062993;28;20218;-83
2023/08/30 12:43:12;;;;;;;9.00;8.20;;;;;;;;;;5051684;28;20173;-83
2023/08/30 12:46:17;;;;;;;6.05;5.45;;;;;;;;;;5063523;28;20195;-83
2023/08/30 12:49:21;;;;;;;6.20;5.60;;;;;;;;;;5039922;28;20228;-83
2023/08/30 12:52:25;;;;;;;8.25;7.45;;;;;;;;;;5063053;28;20201;-82
2023/08/30 12:55:29;;;;;;;6.78;4.70;;;;;;;;;;5063192;28;20194;-83
2023/08/30 12:58:33;;;;;;;5.23;2.83;;;;;;;;;;5043158;28;20178;-83
2023/08/30 13:01:37;;;;;;;5.73;3.50;;;;;;;;;;5079995;28;20175;-85
2023/08/30 13:04:42;;;;;;;3.43;1.90;;;;;;;;;;5046119;28;20186;-84
2023/08/30 13:07:46;;;;;;;5.97;3.47;;;;;;;;;;5046034;28;20197;-84
2023/08/30 13:10:50;;;;;;;6.00;3.73;;;;;;;;;;5057040;28;20222;-84
2023/08/30 13:13:57;;;;;;;3.57;3.00;;;;;;;;;;5056656;28;20271;-85
2023/08/30 13:17:00;;;;;;;2.53;2.33;;;;;;;;;;5067926;28;20652;-84
2023/08/30 13:20:05;;;;;;;2.67;2.47;;;;;;;;;;5045019;28;20223;-84
2023/08/30 13:23:10;;;;;;;2.77;2.50;;;;;;;;;;5056481;28;20186;-84
2023/08/30 13:26:14;;;;;;;4.23;3.43;;;;;;;;;;5045402;28;20183;-84
2023/08/30 13:29:18;;;;;;;3.63;2.17;;;;;;;;;;5056335;28;20581;-84
2023/08/30 13:32:22;;;;;;;4.00;1.90;;;;;;;;;;5056511;28;20180;-84
2023/08/30 13:35:26;;;;;;;3.90;3.20;;;;;;;;;;5044618;28;20176;-84
2023/08/30 13:38:31;;;;;;;3.77;3.20;;;;;;;;;;5045301;28;20177;-84
2023/08/30 13:41:35;;;;;;;6.00;3.13;;;;;;;;;;5044778;28;20181;-84
2023/08/30 13:44:41;;;;;;;6.33;3.13;;;;;;;;;;5067706;28;20177;-85
2023/08/30 13:47:46;;;;;;;6.13;2.93;;;;;;;;;;5056036;28;20504;-84
2023/08/30 13:50:51;;;;;;;3.77;2.20;;;;;;;;;;5055932;28;20698;-85
2023/08/30 13:53:56;;;;;;;2.40;2.20;;;;;;;;;;5056846;28;20174;-85
2023/08/30 13:57:00;;;;;;;2.23;2.00;;;;;;;;;;5068273;28;20177;-85
2023/08/30 14:00:10;;;;;;;4.73;2.60;;;;;;;;;;5057752;28;20213;-84
2023/08/30 14:03:15;;;;;;;3.97;2.27;;;;;;;;;;5069072;28;20192;-85
2023/08/30 14:06:19;;;;;;;4.93;2.33;;;;;;;;;;5045399;28;20179;-86
2023/08/30 14:09:23;;;;;;;3.53;2.33;;;;;;;;;;5055830;28;20230;-85
2023/08/30 14:12:27;;;;;;;2.63;1.90;;;;;;;;;;5056120;28;20183;-83
2023/08/30 14:15:32;;;;;;;2.40;2.20;;;;;;;;;;5056050;28;20178;-84
2023/08/30 14:18:36;;;;;;;3.53;1.80;;;;;;;;;;5044238;28;20197;-84
2023/08/30 14:21:40;;;;;;;3.13;2.17;;;;;;;;;;5055636;28;20179;-84
2023/08/30 14:24:45;;;;;;;3.67;2.17;;;;;;;;;;5044373;28;20184;-84
2023/08/30 14:27:50;;;;;;;2.93;2.00;;;;;;;;;;5043686;28;20181;-84
2023/08/30 14:30:54;;;;;;;3.00;1.90;;;;;;;;;;5044026;28;20223;-84
2023/08/30 14:33:58;;;;;;;2.20;2.00;;;;;;;;;;5044824;28;20186;-84
2023/08/30 14:37:02;;;;;;;2.50;1.80;;;;;;;;;;5055862;28;20182;-84
2023/08/30 14:40:07;;;;;;;2.47;2.00;;;;;;;;;;5055731;28;20208;-85
2023/08/30 14:43:12;;;;;;;1.80;1.70;;;;;;;;;;5044055;28;20179;-84
2023/08/30 14:46:18;;;;;;;2.33;1.93;;;;;;;;;;5055159;28;20178;-85
2023/08/30 14:49:22;;;;;;;2.97;2.30;;;;;;;;;;5043652;28;20229;-85
2023/08/30 14:52:26;;;;;;;5.03;2.13;;;;;;;;;;5066449;28;20180;-83
2023/08/30 14:55:30;;;;;;;5.07;2.00;;;;;;;;;;5043514;28;20518;-85
2023/08/30 14:58:35;;;;;;;2.70;2.10;;;;;;;;;;5043412;28;20178;-84
2023/08/30 15:01:39;;;;;;;1.90;1.80;;;;;;;;;;5052656;28;20173;-82
2023/08/30 15:04:43;;;;;;;4.63;2.00;;;;;;;;;;5064415;28;20510;-82
2023/08/30 15:07:47;;;;;;;3.53;1.90;;;;;;;;;;5076416;28;20186;-82
2023/08/30 15:10:51;;;;;;;2.63;1.97;;;;;;;;;;5052423;28;20230;-82
2023/08/30 15:13:56;;;;;;;2.23;1.67;;;;;;;;;;5075804;28;20178;-82
2023/08/30 15:17:00;;;;;;;2.50;1.70;;;;;;;;;;5064378;28;20177;-81
2023/08/30 15:20:05;;;;;;;2.10;1.50;;;;;;;;;;5052958;28;20207;-83
2023/08/30 15:23:16;;;;;;;2.97;1.70;;;;;;;;;;5063999;28;20183;-82
2023/08/30 15:26:21;;;;;;;6.63;2.20;;;;;;;;;;5064264;28;20189;-82
2023/08/30 15:29:25;;;;;;;4.60;2.63;;;;;;;;;;5063314;28;20232;-81
2023/08/30 15:32:31;;;;;;;3.67;2.50;;;;;;;;;;5041094;28;20193;-80
2023/08/30 15:35:39;;;;;;;2.23;2.00;;;;;;;;;;5040566;28;20541;-81
2023/08/30 15:38:47;;;;;;;2.20;2.00;;;;;;;;;;5063357;28;20203;-80
2023/08/30 15:41:51;;;;;;;3.23;2.30;;;;;;;;;;5052907;28;20177;-81
2023/08/30 15:44:55;;;;;;;3.20;2.30;;;;;;;;;;5077048;28;20179;-85
2023/08/30 15:48:00;;;;;;;2.67;2.20;;;;;;;;;;5042732;28;20187;-84
2023/08/30 15:51:05;;;;;;;3.47;2.10;;;;;;;;;;5043107;28;20223;-83
2023/08/30 15:54:09;;;;;;;4.47;2.17;;;;;;;;;;5064241;28;20180;-83
2023/08/30 15:57:13;;;;;;;3.73;2.40;;;;;;;;;;5053130;28;20626;-82
2023/08/30 16:00:17;;;;;;;3.77;2.17;;;;;;;;;;5041994;28;20215;-83
2023/08/30 16:03:21;;;;;;;6.43;2.27;;;;;;;;;;5041217;28;20180;-82
2023/08/30 16:06:25;;;;;;;3.20;2.53;;;;;;;;;;5053475;28;20519;-83
2023/08/30 16:09:30;;;;;;;2.80;2.50;;;;;;;;;;5078169;28;20567;-83
2023/08/30 16:12:33;;;;;;;2.53;2.30;;;;;;;;;;5066529;28;20179;-84
2023/08/30 16:15:38;;;;;;;2.53;2.33;;;;;;;;;;5054314;28;20171;-84
2023/08/30 16:18:42;;;;;;;2.40;2.20;;;;;;;;;;5043149;28;20527;-83
2023/08/30 16:21:49;;;;;;;2.80;2.30;;;;;;;;;;5065477;28;20171;-84
2023/08/30 16:24:54;;;;;;;2.33;2.00;;;;;;;;;;5066294;28;20176;-84
2023/08/30 16:27:58;;;;;;;4.63;2.30;;;;;;;;;;5065830;28;20195;-84
2023/08/30 16:31:06;;;;;;;2.70;2.17;;;;;;;;;;5076876;28;20222;-84
2023/08/30 16:34:10;;;;;;;3.57;2.10;;;;;;;;;;5043276;28;20626;-84
2023/08/30 16:37:15;;;;;;;4.37;2.30;;;;;;;;;;5077224;28;20175;-84
2023/08/30 16:40:20;;;;;;;2.60;2.17;;;;;;;;;;5054825;28;20375;-84
2023/08/30 16:43:25;;;;;;;3.23;2.40;;;;;;;;;;5053805;28;20191;-83
2023/08/30 16:46:31;;;;;;;2.83;2.40;;;;;;;;;;5066421;28;20195;-84
2023/08/30 16:49:35;;;;;;;4.57;2.03;;;;;;;;;;5042413;28;20219;-85
2023/08/30 16:52:39;;;;;;;6.67;2.17;;;;;;;;;;5054139;28;20542;-84
2023/08/30 16:55:43;;;;;;;2.33;2.10;;;;;;;;;;5077463;28;20531;-84
2023/08/30 16:58:48;;;;;;;3.07;2.20;;;;;;;;;;5042655;28;20207;-84
2023/08/30 17:01:52;;;;;;;2.30;2.10;;;;;;;;;;5053818;28;20195;-83
2023/08/30 17:04:56;;;;;;;5.03;2.20;;;;;;;;;;5064990;28;20199;-83
2023/08/30 17:08:01;;;;;;;5.00;2.17;;;;;;;;;;5064969;28;20646;-82
2023/08/30 17:11:07;;;;;;;3.23;2.50;;;;;;;;;;5064809;28;20223;-83
2023/08/30 17:14:12;;;;;;;3.33;2.43;;;;;;;;;;5064586;28;20184;-83
2023/08/30 17:17:16;;;;;;;7.23;2.57;;;;;;;;;;5053656;28;20176;-83
2023/08/30 17:20:20;;;;;;;3.13;2.60;;;;;;;;;;5042314;28;20215;-82
2023/08/30 17:23:24;;;;;;;4.50;2.97;;;;;;;;;;5041803;28;20175;-83
2023/08/30 17:26:28;;;;;;;4.17;2.13;;;;;;;;;;5065218;28;20606;-83
2023/08/30 17:29:32;;;;;;;5.70;2.70;;;;;;;;;;5054212;28;20223;-82
2023/08/30 17:32:37;;;;;;;5.93;2.73;;;;;;;;;;5065944;28;20171;-82
2023/08/30 17:35:41;;;;;;;4.70;2.60;;;;;;;;;;5042532;28;20175;-82
2023/08/30 17:38:46;;;;;;;3.00;2.70;;;;;;;;;;5041810;28;20179;-84
2023/08/30 17:41:51;;;;;;;2.83;2.50;;;;;;;;;;5065350;28;20175;-82
2023/08/30 17:44:55;;;;;;;3.67;2.53;;;;;;;;;;5068239;28;20175;-83
2023/08/30 17:48:00;;;;;;;3.93;2.50;;;;;;;;;;5057946;28;20669;-82
2023/08/30 17:51:04;;;;;;;3.10;2.37;;;;;;;;;;5069506;28;20235;-83
2023/08/30 17:54:09;;;;;;;3.93;2.20;;;;;;;;;;5047065;28;20503;-84
2023/08/30 17:57:13;;;;;;;2.73;2.53;;;;;;;;;;5046125;28;20179;-83
2023/08/30 18:00:20;;;;;;;2.93;2.63;;;;;;;;;;5068808;28;20219;-83
2023/08/30 18:03:28;;;;;;;3.23;2.87;;;;;;;;;;5068837;28;20180;-83
2023/08/30 18:06:34;;;;;;;3.17;2.83;;;;;;;;;;5045210;28;20179;-84
2023/08/30 18:09:38;;;;;;;2.97;2.60;;;;;;;;;;5056488;28;20222;-82
2023/08/30 18:12:42;;;;;;;2.53;2.33;;;;;;;;;;5081015;28;20175;-83
2023/08/30 18:15:47;;;;;;;5.50;2.50;;;;;;;;;;5057478;28;20176;-84
2023/08/30 18:18:51;;;;;;;5.77;3.27;;;;;;;;;;5046136;28;20552;-83